createdAt,value
2019-02-22T00:01:22.115Z,5.00
2019-02-22T00:03:54.905Z,4.89
2019-02-22T00:06:26.722Z,4.92
2019-02-22T00:08:58.464Z,4.91
2019-02-22T00:11:30.301Z,4.93
2019-02-22T00:14:02.288Z,4.92
2019-02-22T00:16:34.174Z,4.92
2019-02-22T00:19:06.051Z,4.93
2019-02-22T00:21:37.795Z,4.94
2019-02-22T00:24:09.523Z,4.95
2019-02-22T00:26:41.340Z,4.96
2019-02-22T00:29:13.080Z,4.94
2019-02-22T00:31:44.918Z,4.96
2019-02-22T00:34:16.799Z,4.99
2019-02-22T00:36:48.658Z,4.99
2019-02-22T00:39:20.454Z,4.99
2019-02-22T00:41:52.204Z,5.00
2019-02-22T00:44:24.221Z,5.01
2019-02-22T00:46:56.289Z,4.98
2019-02-22T00:49:28.102Z,4.98
2019-02-22T00:52:00.245Z,4.98
2019-02-22T00:54:31.976Z,5.03
2019-02-22T00:57:03.725Z,5.05
2019-02-22T00:59:35.535Z,5.07
2019-02-22T01:02:07.270Z,5.08
2019-02-22T01:04:39.025Z,5.09
2019-02-22T01:07:10.821Z,5.09
2019-02-22T01:09:42.631Z,5.09
2019-02-22T01:12:14.379Z,5.10
2019-02-22T01:14:46.198Z,5.10
2019-02-22T01:17:17.941Z,5.09
2019-02-22T01:19:49.934Z,5.06
2019-02-22T01:22:21.765Z,5.08
2019-02-22T01:24:53.567Z,5.00
2019-02-22T01:27:25.450Z,4.99
2019-02-22T01:29:57.452Z,4.92
2019-02-22T01:32:29.267Z,4.92
2019-02-22T01:35:01.075Z,4.90
2019-02-22T01:37:32.814Z,4.93
2019-02-22T01:40:06.233Z,4.86
2019-02-22T01:42:38.074Z,4.84
2019-02-22T01:45:10.029Z,4.84
2019-02-22T01:47:41.851Z,4.71
2019-02-22T01:50:24.053Z,4.69
2019-02-22T01:52:55.856Z,4.85
2019-02-22T01:55:27.859Z,5.35
2019-02-22T01:57:59.678Z,5.56
2019-02-22T02:00:31.479Z,5.67
2019-02-22T02:03:03.491Z,5.74
2019-02-22T02:05:35.215Z,5.84
2019-02-22T02:08:07.114Z,5.83
2019-02-22T02:10:38.851Z,5.74
2019-02-22T02:13:10.665Z,5.80
2019-02-22T02:15:42.558Z,5.68
2019-02-22T02:18:14.381Z,5.76
2019-02-22T02:20:46.295Z,5.85
2019-02-22T02:23:18.140Z,5.88
2019-02-22T02:25:49.964Z,6.01
2019-02-22T02:28:21.780Z,6.07
2019-02-22T02:30:53.583Z,6.00
2019-02-22T02:33:25.410Z,5.86
2019-02-22T02:35:57.398Z,5.95
2019-02-22T02:38:29.217Z,6.06
2019-02-22T02:41:10.073Z,6.01
2019-02-22T02:43:34.380Z,6.06
2019-02-22T02:46:06.349Z,6.05
2019-02-22T02:48:38.170Z,6.03
2019-02-22T02:51:10.050Z,6.16
2019-02-22T02:53:41.787Z,6.19
2019-02-22T02:56:13.532Z,6.18
2019-02-22T02:58:45.288Z,6.20
2019-02-22T03:01:17.100Z,6.28
2019-02-22T03:03:48.834Z,6.30
2019-02-22T03:06:30.884Z,6.21
2019-02-22T03:09:02.626Z,6.31
2019-02-22T03:11:36.058Z,6.24
2019-02-22T03:14:09.134Z,6.34
2019-02-22T03:16:40.879Z,6.31
2019-02-22T03:19:12.643Z,6.22
2019-02-22T03:21:45.372Z,6.25
2019-02-22T03:24:17.142Z,6.22
2019-02-22T03:26:48.887Z,6.28
2019-02-22T03:29:20.641Z,6.36
2019-02-22T03:31:52.399Z,6.32
2019-02-22T03:34:24.571Z,6.35
2019-02-22T03:36:56.331Z,6.37
2019-02-22T03:39:28.415Z,6.34
2019-02-22T03:42:00.162Z,6.31
2019-02-22T03:44:31.924Z,6.26
2019-02-22T03:47:03.680Z,6.30
2019-02-22T03:49:35.518Z,6.33
2019-02-22T03:52:41.384Z,6.28
2019-02-22T03:55:13.217Z,6.29
2019-02-22T03:57:45.429Z,6.27
2019-02-22T04:00:17.222Z,6.27
2019-02-22T04:02:49.398Z,6.20
2019-02-22T04:05:21.412Z,6.28
2019-02-22T04:07:53.174Z,6.23
2019-02-22T04:10:28.226Z,6.21
2019-02-22T04:13:00.269Z,6.18
2019-02-22T04:15:32.085Z,6.24
2019-02-22T04:18:03.922Z,6.21
2019-02-22T04:20:35.664Z,6.17
2019-02-22T04:23:07.423Z,6.24
2019-02-22T04:25:39.181Z,6.23
2019-02-22T04:28:10.938Z,6.28
2019-02-22T04:30:42.691Z,6.17
2019-02-22T04:33:14.447Z,6.26
2019-02-22T04:35:46.197Z,6.20
2019-02-22T04:38:18.928Z,6.15
2019-02-22T04:40:50.682Z,6.19
2019-02-22T04:43:22.449Z,6.11
2019-02-22T04:45:54.205Z,6.27
2019-02-22T04:48:26.317Z,6.20
2019-02-22T04:50:58.135Z,6.19
2019-02-22T04:53:29.908Z,6.08
2019-02-22T04:56:01.745Z,6.20
2019-02-22T04:58:33.755Z,6.21
2019-02-22T05:01:05.733Z,6.19
2019-02-22T05:03:38.815Z,6.16
2019-02-22T05:06:10.572Z,6.17
2019-02-22T05:08:42.414Z,6.21
2019-02-22T05:11:14.319Z,6.23
2019-02-22T05:13:46.337Z,6.21
2019-02-22T05:16:19.314Z,6.17
2019-02-22T05:18:51.075Z,6.22
2019-02-22T05:21:22.902Z,6.26
2019-02-22T05:23:54.732Z,6.15
2019-02-22T05:26:26.638Z,6.23
2019-02-22T05:28:58.390Z,6.16
2019-02-22T05:31:30.216Z,6.19
2019-02-22T05:34:01.978Z,6.29
2019-02-22T05:36:33.906Z,6.22
2019-02-22T05:39:18.692Z,6.16
2019-02-22T05:41:40.436Z,6.09
2019-02-22T05:44:12.210Z,6.16
2019-02-22T05:46:43.976Z,6.11
2019-02-22T05:49:15.770Z,6.20
2019-02-22T05:51:47.515Z,6.18
2019-02-22T05:54:19.374Z,6.16
2019-02-22T05:56:51.118Z,6.21
2019-02-22T05:59:22.884Z,6.17
2019-02-22T06:01:54.631Z,6.15
2019-02-22T06:04:26.409Z,6.12
2019-02-22T06:06:58.436Z,6.03
2019-02-22T06:09:30.197Z,6.03
2019-02-22T06:12:01.965Z,6.02
2019-02-22T06:14:33.726Z,6.09
2019-02-22T06:17:14.281Z,6.16
2019-02-22T06:19:39.034Z,6.16
2019-02-22T06:22:10.786Z,6.14
2019-02-22T06:24:42.544Z,6.03
2019-02-22T06:27:14.378Z,6.11
2019-02-22T06:29:46.144Z,5.86
2019-02-22T06:32:17.966Z,6.09
2019-02-22T06:34:49.804Z,6.12
2019-02-22T06:37:21.638Z,6.01
2019-02-22T06:39:53.406Z,6.08
2019-02-22T06:42:25.232Z,5.98
2019-02-22T06:44:57.070Z,5.97
2019-02-22T06:47:28.891Z,6.10
2019-02-22T06:50:00.665Z,6.03
2019-02-22T06:52:32.411Z,6.01
2019-02-22T06:55:04.514Z,6.14
2019-02-22T06:57:36.267Z,6.00
2019-02-22T07:00:09.466Z,5.92
2019-02-22T07:02:41.301Z,5.96
2019-02-22T07:05:13.211Z,6.14
2019-02-22T07:07:44.950Z,6.11
2019-02-22T07:10:16.797Z,6.15
2019-02-22T07:12:56.876Z,6.05
2019-02-22T07:15:29.711Z,6.14
2019-02-22T07:18:01.517Z,6.10
2019-02-22T07:20:33.274Z,6.10
2019-02-22T07:23:06.636Z,6.10
2019-02-22T07:25:38.404Z,6.15
2019-02-22T07:28:10.164Z,6.24
2019-02-22T07:30:41.922Z,6.16
2019-02-22T07:33:13.702Z,6.24
2019-02-22T07:35:45.870Z,6.11
2019-02-22T07:38:17.967Z,6.30
2019-02-22T07:40:49.722Z,6.22
2019-02-22T07:43:21.470Z,6.25
2019-02-22T07:45:53.245Z,6.36
2019-02-22T07:48:25.013Z,6.39
2019-02-22T07:50:58.366Z,6.35
2019-02-22T07:53:30.375Z,6.27
2019-02-22T07:56:02.447Z,6.43
2019-02-22T07:58:34.268Z,6.36
2019-02-22T08:01:06.556Z,6.31
2019-02-22T08:03:38.308Z,6.44
2019-02-22T08:06:10.140Z,6.55
2019-02-22T08:08:41.888Z,6.45
2019-02-22T08:11:13.973Z,6.60
2019-02-22T08:13:46.781Z,6.60
2019-02-22T08:16:18.896Z,6.55
2019-02-22T08:19:00.896Z,6.63
2019-02-22T08:21:24.521Z,6.71
2019-02-22T08:23:56.693Z,6.58
2019-02-22T08:26:28.835Z,6.40
2019-02-22T08:29:00.569Z,6.53
2019-02-22T08:31:32.640Z,6.56
2019-02-22T08:34:06.117Z,6.62
2019-02-22T08:36:45.021Z,6.66
2019-02-22T08:39:16.764Z,6.66
2019-02-22T08:41:48.530Z,6.62
2019-02-22T08:44:20.618Z,6.66
2019-02-22T08:46:52.786Z,6.72
2019-02-22T08:49:24.893Z,6.66
2019-02-22T08:51:56.913Z,6.73
2019-02-22T08:54:28.672Z,6.86
2019-02-22T08:57:00.512Z,7.03
2019-02-22T08:59:32.328Z,6.96
2019-02-22T09:02:04.160Z,6.97
2019-02-22T09:04:35.985Z,7.04
2019-02-22T09:07:09.894Z,7.05
2019-02-22T09:09:41.714Z,7.09
2019-02-22T09:12:13.563Z,7.22
2019-02-22T09:14:45.383Z,7.23
2019-02-22T09:17:17.152Z,7.27
2019-02-22T09:19:49.081Z,7.24
2019-02-22T09:22:23.194Z,7.31
2019-02-22T09:24:54.684Z,7.36
2019-02-22T09:27:26.770Z,7.42
2019-02-22T09:29:59.283Z,7.45
2019-02-22T09:32:31.117Z,7.48
2019-02-22T09:35:02.864Z,7.46
2019-02-22T09:37:34.624Z,7.50
2019-02-22T09:40:08.194Z,7.54
2019-02-22T09:42:40.027Z,7.60
2019-02-22T09:45:12.375Z,7.57
2019-02-22T09:47:44.218Z,7.60
2019-02-22T09:50:16.142Z,7.72
2019-02-22T09:52:48.086Z,7.73
2019-02-22T09:55:19.914Z,7.74
2019-02-22T09:57:51.680Z,7.85
2019-02-22T10:00:23.508Z,7.85
2019-02-22T10:02:55.270Z,7.90
2019-02-22T10:05:27.133Z,7.90
2019-02-22T10:07:58.897Z,7.90
2019-02-22T10:10:31.071Z,7.94
2019-02-22T10:13:02.829Z,7.96
2019-02-22T10:15:34.589Z,7.98
2019-02-22T10:18:06.749Z,8.04
2019-02-22T10:20:38.502Z,8.08
2019-02-22T10:23:10.371Z,8.09
2019-02-22T10:25:42.197Z,8.14
2019-02-22T10:28:17.891Z,8.29
2019-02-22T10:30:48.026Z,8.57
2019-02-22T10:33:36.916Z,8.64
2019-02-22T10:36:14.006Z,8.67
2019-02-22T10:38:45.771Z,8.79
2019-02-22T10:41:17.710Z,8.84
2019-02-22T10:43:49.693Z,8.87
2019-02-22T10:46:22.413Z,8.81
2019-02-22T10:48:54.510Z,8.83
2019-02-22T10:51:26.340Z,8.95
2019-02-22T10:53:58.164Z,8.97
2019-02-22T10:56:30.247Z,8.93
2019-02-22T10:59:02.021Z,8.99
2019-02-22T11:01:33.928Z,9.07
2019-02-22T11:04:05.774Z,9.06
2019-02-22T11:06:37.524Z,9.04
2019-02-22T11:09:09.919Z,9.00
2019-02-22T11:11:41.915Z,9.00
2019-02-22T11:14:13.783Z,8.92
2019-02-22T11:16:45.610Z,8.79
2019-02-22T11:19:17.402Z,8.81
2019-02-22T11:21:49.168Z,8.78
2019-02-22T11:24:20.949Z,8.86
2019-02-22T11:26:52.827Z,8.86
2019-02-22T11:29:24.835Z,8.85
2019-02-22T11:31:56.942Z,8.87
2019-02-22T11:34:28.702Z,8.77
2019-02-22T11:37:00.528Z,8.85
2019-02-22T11:39:32.363Z,8.90
2019-02-22T11:42:04.189Z,8.82
2019-02-22T11:44:40.147Z,8.82
2019-02-22T11:47:10.426Z,8.85
2019-02-22T11:49:42.192Z,8.86
2019-02-22T11:52:14.005Z,8.80
2019-02-22T11:54:46.026Z,8.77
2019-02-22T11:57:19.619Z,8.87
2019-02-22T11:59:51.431Z,8.88
2019-02-22T12:02:23.254Z,8.90
2019-02-22T12:04:55.662Z,9.02
2019-02-22T12:07:27.955Z,9.08
2019-02-22T12:09:59.704Z,9.12
2019-02-22T12:12:33.072Z,9.10
2019-02-22T12:15:05.135Z,9.14
2019-02-22T12:17:38.716Z,9.13
2019-02-22T12:20:10.637Z,9.19
2019-02-22T12:22:42.667Z,9.16
2019-02-22T12:25:14.708Z,9.15
2019-02-22T12:27:46.458Z,9.14
2019-02-22T12:30:18.367Z,9.12
2019-02-22T12:32:50.125Z,9.09
2019-02-22T12:35:21.888Z,8.93
2019-02-22T12:37:53.707Z,8.96
2019-02-22T12:40:25.635Z,8.96
2019-02-22T12:42:57.441Z,9.00
2019-02-22T12:45:29.201Z,9.10
2019-02-22T12:48:00.942Z,9.17
2019-02-22T12:50:32.697Z,9.22
2019-02-22T12:53:04.739Z,9.31
2019-02-22T12:55:37.498Z,9.29
2019-02-22T12:58:10.030Z,9.28
2019-02-22T13:00:42.101Z,9.33
2019-02-22T13:03:14.183Z,9.31
2019-02-22T13:05:46.091Z,9.26
2019-02-22T13:08:17.905Z,9.12
2019-02-22T13:10:49.736Z,9.28
2019-02-22T13:13:21.643Z,9.21
2019-02-22T13:15:53.407Z,9.23
2019-02-22T13:18:25.176Z,9.23
2019-02-22T13:20:57.015Z,9.26
2019-02-22T13:23:28.846Z,9.30
2019-02-22T13:26:00.612Z,9.28
2019-02-22T13:28:32.419Z,9.26
2019-02-22T13:31:04.341Z,9.27
2019-02-22T13:33:36.083Z,9.44
2019-02-22T13:36:08.304Z,9.39
2019-02-22T13:38:40.130Z,9.28
2019-02-22T13:41:12.032Z,9.35
2019-02-22T13:43:43.855Z,9.40
2019-02-22T13:46:16.695Z,9.40
2019-02-22T13:48:48.542Z,9.28
2019-02-22T13:51:20.314Z,9.36
2019-02-22T13:53:52.328Z,9.33
2019-02-22T13:56:29.561Z,9.28
2019-02-22T13:58:57.718Z,9.27
2019-02-22T14:01:30.114Z,9.29
2019-02-22T14:04:01.909Z,9.26
2019-02-22T14:06:33.749Z,9.33
2019-02-22T14:09:06.445Z,9.30
2019-02-22T14:11:39.847Z,9.29
2019-02-22T14:14:12.133Z,9.26
2019-02-22T14:16:44.216Z,9.19
2019-02-22T14:19:15.961Z,9.21
2019-02-22T14:21:48.074Z,9.12
2019-02-22T14:24:19.807Z,9.20
2019-02-22T14:26:51.590Z,9.06
2019-02-22T14:29:23.417Z,9.12
2019-02-22T14:31:55.170Z,9.04
2019-02-22T14:34:26.925Z,9.02
2019-02-22T14:36:58.835Z,9.03
2019-02-22T14:39:30.546Z,8.89
2019-02-22T14:42:02.727Z,9.03
2019-02-22T14:44:34.576Z,8.92
2019-02-22T14:47:06.487Z,8.85
2019-02-22T14:49:38.242Z,8.95
2019-02-22T14:52:12.637Z,9.06
2019-02-22T14:54:43.946Z,9.10
2019-02-22T14:57:16.829Z,9.12
2019-02-22T14:59:49.632Z,9.20
2019-02-22T15:02:21.543Z,9.25
2019-02-22T15:04:53.291Z,9.12
2019-02-22T15:07:25.127Z,9.21
2019-02-22T15:09:58.902Z,9.11
2019-02-22T15:12:30.844Z,9.07
2019-02-22T15:15:02.601Z,9.14
2019-02-22T15:17:40.227Z,9.10
2019-02-22T15:20:12.128Z,9.12
2019-02-22T15:22:43.901Z,9.10
2019-02-22T15:25:16.864Z,9.10
2019-02-22T15:27:48.705Z,9.45
2019-02-22T15:30:20.797Z,9.88
2019-02-22T15:32:52.669Z,9.88
2019-02-22T15:35:24.561Z,9.87
2019-02-22T15:37:56.329Z,9.76
2019-02-22T15:40:28.102Z,9.82
2019-02-22T15:42:59.867Z,9.79
2019-02-22T15:45:31.791Z,9.71
2019-02-22T15:48:03.598Z,9.69
2019-02-22T15:50:35.403Z,9.56
2019-02-22T15:53:07.516Z,9.46
2019-02-22T15:55:39.609Z,9.35
2019-02-22T15:58:11.634Z,9.27
2019-02-22T16:00:43.470Z,9.21
2019-02-22T16:03:15.631Z,9.14
2019-02-22T16:05:47.560Z,9.09
2019-02-22T16:08:19.600Z,9.02
2019-02-22T16:10:51.725Z,9.07
2019-02-22T16:13:23.813Z,9.06
2019-02-22T16:15:55.729Z,8.89
2019-02-22T16:18:27.578Z,8.91
2019-02-22T16:20:59.332Z,8.76
2019-02-22T16:23:31.093Z,8.74
2019-02-22T16:26:02.935Z,8.76
2019-02-22T16:28:34.696Z,8.59
2019-02-22T16:31:06.616Z,8.51
2019-02-22T16:33:38.383Z,8.57
2019-02-22T16:36:10.141Z,8.54
2019-02-22T16:38:42.162Z,8.50
2019-02-22T16:41:13.994Z,8.51
2019-02-22T16:43:47.231Z,8.40
2019-02-22T16:46:19.955Z,8.34
2019-02-22T16:48:51.973Z,8.38
2019-02-22T16:51:25.052Z,8.35
2019-02-22T16:53:57.153Z,8.34
2019-02-22T16:56:29.962Z,8.35
2019-02-22T16:59:01.729Z,8.41
2019-02-22T17:01:33.541Z,8.31
2019-02-22T17:04:06.752Z,8.20
2019-02-22T17:06:38.586Z,8.20
2019-02-22T17:09:10.523Z,8.22
2019-02-22T17:11:42.360Z,8.18
2019-02-22T17:14:14.455Z,8.11
2019-02-22T17:16:46.548Z,8.04
2019-02-22T17:19:18.710Z,7.97
2019-02-22T17:21:50.539Z,7.91
2019-02-22T17:24:22.298Z,7.82
2019-02-22T17:26:54.053Z,7.73
2019-02-22T17:29:25.820Z,7.73
2019-02-22T17:31:57.633Z,7.62
2019-02-22T17:34:29.399Z,7.66
2019-02-22T17:37:01.412Z,7.56
2019-02-22T17:39:33.173Z,7.56
2019-02-22T17:42:05.009Z,7.53
2019-02-22T17:44:36.803Z,7.51
2019-02-22T17:47:09.683Z,7.48
2019-02-22T17:49:41.560Z,7.40
2019-02-22T17:52:13.927Z,7.35
2019-02-22T17:54:45.766Z,7.32
2019-02-22T17:57:17.802Z,7.34
2019-02-22T17:59:49.817Z,7.35
2019-02-22T18:02:21.640Z,7.43
2019-02-22T18:04:53.691Z,7.39
2019-02-22T18:07:25.578Z,7.39
2019-02-22T18:09:57.420Z,7.40
2019-02-22T18:12:29.191Z,7.36
2019-02-22T18:15:00.975Z,7.34
2019-02-22T18:17:32.713Z,7.28
2019-02-22T18:20:04.638Z,7.15
2019-02-22T18:22:36.382Z,7.16
2019-02-22T18:25:08.875Z,7.11
2019-02-22T18:27:40.694Z,7.12
2019-02-22T18:30:13.446Z,7.08
2019-02-22T18:32:45.188Z,7.08
2019-02-22T18:35:17.215Z,7.03
2019-02-22T18:37:48.969Z,6.96
2019-02-22T18:40:20.751Z,6.95
2019-02-22T18:42:52.893Z,6.90
2019-02-22T18:45:24.665Z,6.79
2019-02-22T18:47:56.477Z,6.75
2019-02-22T18:50:28.229Z,6.68
2019-02-22T18:52:59.991Z,6.63
2019-02-22T18:55:31.892Z,6.52
2019-02-22T18:58:03.887Z,6.40
2019-02-22T19:00:35.772Z,6.30
2019-02-22T19:03:10.709Z,6.17
2019-02-22T19:05:42.526Z,6.02
2019-02-22T19:08:14.300Z,5.97
2019-02-22T19:10:46.070Z,6.12
2019-02-22T19:13:18.178Z,6.00
2019-02-22T19:15:50.261Z,5.74
2019-02-22T19:18:22.040Z,5.78
2019-02-22T19:20:53.802Z,6.08
2019-02-22T19:23:26.704Z,6.05
2019-02-22T19:25:59.673Z,5.92
2019-02-22T19:28:31.450Z,5.92
2019-02-22T19:31:03.205Z,5.97
2019-02-22T19:33:34.966Z,6.00
2019-02-22T19:36:06.872Z,6.08
2019-02-22T19:38:38.645Z,6.01
2019-02-22T19:41:10.457Z,6.03
2019-02-22T19:43:42.226Z,5.96
2019-02-22T19:46:14.117Z,5.90
2019-02-22T19:48:46.140Z,6.03
2019-02-22T19:51:17.884Z,5.89
2019-02-22T19:53:49.664Z,5.63
2019-02-22T19:56:21.516Z,5.71
2019-02-22T19:58:53.288Z,5.82
2019-02-22T20:01:25.210Z,5.92
2019-02-22T20:03:57.058Z,5.74
2019-02-22T20:06:28.808Z,5.62
2019-02-22T20:09:00.578Z,5.79
2019-02-22T20:11:33.141Z,5.54
2019-02-22T20:14:05.244Z,5.61
2019-02-22T20:16:36.983Z,5.72
2019-02-22T20:19:09.748Z,5.75
2019-02-22T20:21:41.493Z,5.68
2019-02-22T20:24:13.402Z,5.61
2019-02-22T20:26:45.421Z,5.38
2019-02-22T20:29:17.200Z,5.18
2019-02-22T20:31:48.959Z,5.28
2019-02-22T20:34:21.712Z,5.10
2019-02-22T20:36:54.441Z,5.25
2019-02-22T20:39:26.268Z,5.32
2019-02-22T20:41:58.081Z,5.29
2019-02-22T20:44:29.923Z,5.24
2019-02-22T20:47:01.680Z,5.06
2019-02-22T20:49:33.428Z,5.11
2019-02-22T20:52:05.273Z,5.16
2019-02-22T20:54:37.284Z,5.16
2019-02-22T20:57:09.570Z,5.25
2019-02-22T20:59:41.478Z,5.27
2019-02-22T21:02:14.196Z,5.25
2019-02-22T21:04:46.052Z,5.14
2019-02-22T21:07:17.797Z,5.03
2019-02-22T21:09:49.552Z,4.90
2019-02-22T21:12:21.304Z,4.99
2019-02-22T21:14:53.154Z,4.96
2019-02-22T21:17:24.974Z,4.86
2019-02-22T21:19:56.798Z,4.94
2019-02-22T21:22:28.624Z,4.80
2019-02-22T21:25:00.389Z,4.78
2019-02-22T21:27:32.476Z,4.63
2019-02-22T21:30:04.321Z,4.55
2019-02-22T21:32:37.369Z,4.62
2019-02-22T21:35:09.953Z,4.59
2019-02-22T21:37:47.932Z,4.63
2019-02-22T21:40:21.811Z,4.47
2019-02-22T21:42:53.577Z,4.59
2019-02-22T21:45:25.432Z,4.37
2019-02-22T21:47:57.181Z,4.10
2019-02-22T21:50:29.023Z,3.95
2019-02-22T21:53:00.781Z,3.95
2019-02-22T21:55:32.561Z,3.84
2019-02-22T21:58:06.006Z,3.81
2019-02-22T22:00:37.851Z,3.76
2019-02-22T22:03:09.599Z,3.76
2019-02-22T22:05:41.616Z,3.73
2019-02-22T22:08:13.702Z,3.88
2019-02-22T22:10:45.493Z,3.63
2019-02-22T22:13:17.328Z,3.56
2019-02-22T22:15:49.098Z,3.45
2019-02-22T22:18:20.995Z,3.57
2019-02-22T22:20:52.919Z,3.56
2019-02-22T22:23:24.941Z,3.34
2019-02-22T22:25:56.711Z,3.51
2019-02-22T22:28:28.544Z,3.42
2019-02-22T22:31:00.634Z,3.24
2019-02-22T22:33:32.385Z,3.13
2019-02-22T22:36:04.385Z,3.12
2019-02-22T22:38:36.150Z,3.40
2019-02-22T22:41:08.191Z,3.47
2019-02-22T22:43:39.951Z,3.46
2019-02-22T22:46:11.800Z,3.36
2019-02-22T22:48:50.439Z,3.29
2019-02-22T22:51:17.139Z,3.11
2019-02-22T22:53:48.933Z,3.16
2019-02-22T22:56:21.234Z,3.30
2019-02-22T22:58:52.998Z,3.31
2019-02-22T23:01:26.587Z,3.22
2019-02-22T23:03:58.560Z,3.10
2019-02-22T23:06:30.860Z,3.18
2019-02-22T23:09:03.377Z,3.18
2019-02-22T23:11:36.891Z,3.26
2019-02-22T23:14:09.815Z,2.89
2019-02-22T23:16:41.941Z,2.94
2019-02-22T23:19:13.858Z,2.90
2019-02-22T23:21:45.703Z,2.79
2019-02-22T23:24:17.613Z,2.86
2019-02-22T23:26:49.739Z,2.71
2019-02-22T23:29:21.596Z,2.72
2019-02-22T23:31:53.512Z,2.76
2019-02-22T23:34:25.361Z,2.77
2019-02-22T23:36:57.124Z,2.71
2019-02-22T23:39:29.150Z,2.37
2019-02-22T23:42:00.939Z,2.76
2019-02-22T23:44:32.702Z,2.88
2019-02-22T23:47:04.548Z,3.00
2019-02-22T23:49:36.397Z,2.94
2019-02-22T23:52:08.239Z,2.73
2019-02-22T23:54:40.022Z,2.65
2019-02-22T23:57:11.846Z,2.50
2019-02-22T23:59:43.632Z,2.51
